Time;durP1;ratioP1;P1;durP2;ratioP2;P2;SDS_P1;SDS_P2;PMS_P1;PMS_P2;Temp;Humidity;BMP_temperature;BMP_pressure;BME280_temperature;BME280_humidity;BME280_pressure;Samples;Min_cycle;Max_cycle;Signal;HPM_P1;HPM_P2
2023/09/02 00:02:22;;;;;;;0.00;0.00;;;;;;;16.50;100.00;99462.19;5096495;28;20264;-57
2023/09/02 00:05:11;;;;;;;0.00;0.00;;;;;;;16.56;100.00;99453.66;5096032;28;20222;-57
2023/09/02 00:07:57;;;;;;;0.00;0.00;;;;;;;16.61;100.00;99458.63;5096324;28;20199;-57
2023/09/02 00:10:44;;;;;;;0.00;0.00;;;;;;;16.67;100.00;99452.75;5095003;28;20195;-57
2023/09/02 00:13:31;;;;;;;0.10;0.10;;;;;;;16.63;100.00;99453.13;5096110;28;20194;-57
2023/09/02 00:16:18;;;;;;;0.10;0.10;;;;;;;16.63;100.00;99454.00;5096222;28;20218;-57
2023/09/02 00:19:05;;;;;;;0.00;0.00;;;;;;;16.55;100.00;99456.47;5096297;28;20242;-57
2023/09/02 00:21:53;;;;;;;0.03;0.03;;;;;;;16.56;100.00;99459.00;5096108;28;20191;-57
2023/09/02 00:24:40;;;;;;;0.00;0.00;;;;;;;16.63;100.00;99458.50;5095482;28;20333;-57
2023/09/02 00:27:27;;;;;;;0.00;0.00;;;;;;;16.64;100.00;99454.84;5095953;28;20194;-57
2023/09/02 00:30:14;;;;;;;0.00;0.00;;;;;;;16.53;100.00;99461.09;5095827;28;20243;-57
2023/09/02 00:33:01;;;;;;;0.10;0.10;;;;;;;16.53;100.00;99466.44;5095780;28;20375;-57
2023/09/02 00:35:49;;;;;;;0.10;0.10;;;;;;;16.49;100.00;99467.66;5095689;28;20199;-57
2023/09/02 00:38:37;;;;;;;0.00;0.00;;;;;;;16.46;100.00;99475.94;5095428;28;20246;-57
2023/09/02 00:41:30;;;;;;;0.10;0.10;;;;;;;16.38;100.00;99465.88;5094561;28;20195;-57
2023/09/02 00:44:17;;;;;;;0.10;0.10;;;;;;;16.41;100.00;99471.00;5095511;28;20210;-56
2023/09/02 00:47:05;;;;;;;0.00;0.00;;;;;;;16.41;100.00;99472.81;5094478;28;20190;-57
2023/09/02 00:49:51;;;;;;;0.10;0.10;;;;;;;16.45;100.00;99474.25;5095523;28;20187;-57
2023/09/02 00:52:38;;;;;;;0.10;0.10;;;;;;;16.47;100.00;99481.16;5095579;28;20203;-57
2023/09/02 00:55:26;;;;;;;0.00;0.00;;;;;;;16.48;100.00;99487.34;5093883;28;20194;-57
2023/09/02 00:58:14;;;;;;;0.10;0.10;;;;;;;16.59;100.00;99484.63;5094525;28;20679;-57
2023/09/02 01:01:03;;;;;;;0.00;0.00;;;;;;;16.54;100.00;99478.84;5095471;28;20190;-57
2023/09/02 01:03:49;;;;;;;0.10;0.10;;;;;;;16.52;100.00;99480.78;5095025;28;20269;-57
2023/09/02 01:06:38;;;;;;;0.03;0.03;;;;;;;16.61;100.00;99474.69;5094435;28;20269;-57
2023/09/02 01:09:25;;;;;;;0.10;0.10;;;;;;;16.56;100.00;99476.88;5094192;28;20697;-57
2023/09/02 01:12:14;;;;;;;0.00;0.00;;;;;;;16.54;100.00;99484.19;5094924;28;20671;-57
2023/09/02 01:15:01;;;;;;;0.10;0.10;;;;;;;16.47;100.00;99480.31;5094998;28;20195;-57
2023/09/02 01:17:47;;;;;;;0.00;0.00;;;;;;;16.58;100.00;99473.09;5094021;28;20198;-57
2023/09/02 01:20:52;;;;;;;0.00;0.00;;;;;;;16.62;100.00;99484.38;5093836;28;20207;-57
2023/09/02 01:24:06;;;;;;;0.10;0.10;;;;;;;16.56;100.00;99484.88;5095072;28;20260;-57
2023/09/02 01:27:11;;;;;;;0.10;0.10;;;;;;;16.68;100.00;99485.69;5093525;28;20194;-57
2023/09/02 01:30:03;;;;;;;0.00;0.00;;;;;;;16.68;100.00;83663.78;5093952;28;20273;-57
2023/09/02 01:32:53;;;;;;;0.00;0.00;;;;;;;16.53;100.00;99477.97;5094724;28;20218;-57
2023/09/02 01:35:41;;;;;;;0.03;0.03;;;;;;;16.55;100.00;99481.38;5094592;28;20253;-57
2023/09/02 01:38:30;;;;;;;0.00;0.00;;;;;;;16.58;100.00;99481.09;5094435;28;20279;-57
2023/09/02 01:41:19;;;;;;;0.10;0.10;;;;;;;16.54;100.00;99489.53;5093299;28;20198;-57
2023/09/02 01:44:08;;;;;;;0.00;0.00;;;;;;;16.66;100.00;99490.31;5094538;28;20195;-57
2023/09/02 01:46:56;;;;;;;0.00;0.00;;;;;;;16.56;100.00;99490.25;5093207;28;20195;-57
2023/09/02 01:49:43;;;;;;;0.10;0.10;;;;;;;16.69;100.00;99492.75;5094172;28;20317;-57
2023/09/02 01:52:31;;;;;;;0.00;0.00;;;;;;;16.48;100.00;99496.22;5094300;28;20217;-57
2023/09/02 01:55:18;;;;;;;0.00;0.00;;;;;;;16.48;100.00;99501.56;5092694;28;20214;-57
2023/09/02 01:58:08;;;;;;;0.10;0.10;;;;;;;16.47;100.00;99504.38;5093143;28;20203;-57
2023/09/02 02:00:58;;;;;;;0.10;0.10;;;;;;;16.65;100.00;99499.31;5094135;28;20302;-57
2023/09/02 02:03:54;;;;;;;0.00;0.00;;;;;;;16.46;100.00;99498.19;5093038;28;20333;-57
2023/09/02 02:06:44;;;;;;;0.10;0.10;;;;;;;16.42;100.00;99503.91;5093929;28;20242;-57
2023/09/02 02:09:34;;;;;;;0.10;0.10;;;;;;;16.57;100.00;99498.13;5093872;28;20202;-57
2023/09/02 02:12:22;;;;;;;0.00;0.00;;;;;;;16.38;100.00;99499.78;5093799;28;20690;-57
2023/09/02 02:15:11;;;;;;;0.00;0.00;;;;;;;16.37;100.00;99490.91;5094029;28;20190;-57
2023/09/02 02:17:59;;;;;;;0.10;0.10;;;;;;;16.22;100.00;99495.72;5093923;28;20203;-57
2023/09/02 02:21:02;;;;;;;0.00;0.00;;;;;;;16.23;100.00;99491.22;5093824;28;20195;-57
2023/09/02 02:23:50;;;;;;;0.00;0.00;;;;;;;16.27;100.00;99495.31;5092792;28;20290;-57
2023/09/02 02:26:36;;;;;;;0.00;0.00;;;;;;;16.24;100.00;99499.09;5092348;28;20214;-57
2023/09/02 02:29:23;;;;;;;0.00;0.00;;;;;;;16.25;100.00;99498.13;5093622;28;20190;-57
2023/09/02 02:32:10;;;;;;;0.10;0.10;;;;;;;16.16;100.00;99496.22;5093498;28;20241;-57
2023/09/02 02:34:59;;;;;;;0.03;0.03;;;;;;;16.16;100.00;99504.22;5092523;28;20203;-57
2023/09/02 02:37:45;;;;;;;0.10;0.10;;;;;;;16.13;100.00;99507.16;5093415;28;20218;-57
2023/09/02 02:40:32;;;;;;;0.00;0.00;;;;;;;16.06;100.00;99510.44;5092224;28;20272;-57
2023/09/02 02:43:25;;;;;;;0.10;0.10;;;;;;;16.12;100.00;99515.31;5092385;28;20679;-57
2023/09/02 02:46:12;;;;;;;0.07;0.07;;;;;;;16.17;100.00;99516.63;5093225;28;20242;-57
2023/09/02 02:48:59;;;;;;;0.10;0.10;;;;;;;16.16;100.00;99514.91;5092131;28;20280;-57
2023/09/02 02:51:47;;;;;;;0.10;0.10;;;;;;;16.17;100.00;99524.63;5093157;28;20241;-57
2023/09/02 02:54:37;;;;;;;0.10;0.10;;;;;;;16.26;100.00;99534.56;5091834;28;20203;-57
2023/09/02 02:57:24;;;;;;;0.10;0.10;;;;;;;16.15;100.00;99521.25;5092208;28;20261;-57
2023/09/02 03:00:12;;;;;;;0.00;0.00;;;;;;;16.05;100.00;99525.63;5091850;28;20257;-57
2023/09/02 03:02:59;;;;;;;0.10;0.10;;;;;;;16.13;100.00;99522.34;5092936;28;20198;-57
2023/09/02 03:05:45;;;;;;;0.00;0.00;;;;;;;16.21;100.00;99527.88;5092920;28;20222;-56
2023/09/02 03:08:34;;;;;;;0.00;0.00;;;;;;;16.15;100.00;99521.25;5091856;28;20372;-57
2023/09/02 03:11:21;;;;;;;0.10;0.10;;;;;;;16.03;100.00;99524.91;5091626;28;20191;-57
2023/09/02 03:14:08;;;;;;;0.10;0.10;;;;;;;16.01;100.00;99510.81;5091758;28;20237;-57
2023/09/02 03:16:55;;;;;;;0.10;0.10;;;;;;;16.11;100.00;99518.91;5092698;28;20190;-57
2023/09/02 03:19:44;;;;;;;0.10;0.10;;;;;;;16.09;100.00;99521.72;5092106;28;20194;-57
2023/09/02 03:22:31;;;;;;;0.00;0.00;;;;;;;16.10;100.00;99523.41;5092763;28;20237;-57
2023/09/02 03:25:19;;;;;;;0.10;0.10;;;;;;;16.09;100.00;99528.91;5089945;28;20206;-57
2023/09/02 03:28:06;;;;;;;0.07;0.07;;;;;;;15.93;100.00;99526.63;5092809;28;20235;-57
2023/09/02 03:30:53;;;;;;;0.00;0.00;;;;;;;15.92;100.00;99535.59;5092655;28;20199;-57
2023/09/02 03:33:40;;;;;;;0.10;0.10;;;;;;;15.98;100.00;99543.13;5092435;28;20195;-57
2023/09/02 03:36:28;;;;;;;0.00;0.00;;;;;;;16.07;100.00;99541.53;5091494;28;20246;-57
2023/09/02 03:39:15;;;;;;;0.00;0.00;;;;;;;15.92;100.00;99538.25;5091082;28;20230;-57
2023/09/02 03:42:04;;;;;;;0.10;0.10;;;;;;;15.92;100.00;99538.25;5091260;28;20206;-57
2023/09/02 03:44:51;;;;;;;0.00;0.00;;;;;;;15.92;100.00;99548.94;5091406;28;20195;-57
2023/09/02 03:47:38;;;;;;;0.10;0.10;;;;;;;15.92;100.00;99544.47;5092431;28;20221;-57
2023/09/02 03:50:27;;;;;;;0.07;0.07;;;;;;;15.89;100.00;99544.69;5091109;28;20219;-57
2023/09/02 03:53:15;;;;;;;0.10;0.10;;;;;;;15.89;100.00;99543.84;5091519;28;20218;-57
2023/09/02 03:56:02;;;;;;;0.10;0.10;;;;;;;15.98;100.00;99549.31;5091153;28;20198;-57
2023/09/02 03:58:53;;;;;;;0.10;0.10;;;;;;;15.95;100.00;99549.56;5091314;28;20195;-57
2023/09/02 04:01:41;;;;;;;0.00;0.00;;;;;;;16.01;100.00;99553.56;5091408;28;20187;-57
2023/09/02 04:04:28;;;;;;;0.10;0.10;;;;;;;16.05;100.00;99555.03;5091272;28;20194;-57
2023/09/02 04:07:15;;;;;;;0.10;0.10;;;;;;;16.17;100.00;99564.72;5090853;28;20214;-56
2023/09/02 04:10:02;;;;;;;0.10;0.10;;;;;;;16.04;100.00;99566.69;5090152;28;20237;-57
2023/09/02 04:12:49;;;;;;;0.00;0.00;;;;;;;15.97;100.00;99560.13;5092275;28;20317;-57
2023/09/02 04:15:38;;;;;;;0.00;0.00;;;;;;;15.97;100.00;99560.13;5091205;28;20195;-56
2023/09/02 04:18:26;;;;;;;0.10;0.10;;;;;;;15.98;100.00;99573.34;5091083;28;20320;-57
2023/09/02 04:21:14;;;;;;;0.10;0.10;;;;;;;15.90;100.00;99572.28;5091110;28;20199;-57
2023/09/02 04:24:02;;;;;;;0.00;0.00;;;;;;;15.89;100.00;99571.41;5091204;28;20191;-57
2023/09/02 04:26:49;;;;;;;0.00;0.00;;;;;;;15.82;100.00;99580.03;5089408;28;20234;-57
2023/09/02 04:29:37;;;;;;;0.10;0.10;;;;;;;15.95;100.00;99575.44;5091103;28;20265;-57
2023/09/02 04:32:25;;;;;;;0.00;0.00;;;;;;;15.89;100.00;99576.75;5094148;28;20194;-57
2023/09/02 04:35:12;;;;;;;0.00;0.00;;;;;;;15.81;100.00;99578.34;5094786;28;20202;-57
2023/09/02 04:37:59;;;;;;;0.00;0.00;;;;;;;15.90;100.00;99585.63;5095707;28;20223;-57
2023/09/02 04:40:46;;;;;;;0.00;0.00;;;;;;;15.91;100.00;99584.66;5094520;28;20551;-57
2023/09/02 04:43:34;;;;;;;0.00;0.00;;;;;;;15.85;100.00;99588.69;5094617;28;20197;-57
2023/09/02 04:46:23;;;;;;;0.00;0.00;;;;;;;15.93;100.00;99588.94;5094535;28;20230;-57
2023/09/02 04:49:13;;;;;;;0.10;0.10;;;;;;;15.63;100.00;99584.19;5094603;28;20210;-57
2023/09/02 04:51:59;;;;;;;0.00;0.00;;;;;;;15.67;100.00;99596.31;5095595;28;20722;-57
2023/09/02 04:54:46;;;;;;;0.07;0.07;;;;;;;15.58;100.00;99596.13;5093107;28;20670;-57
2023/09/02 04:57:34;;;;;;;0.00;0.00;;;;;;;15.69;100.00;99601.53;5095514;28;20257;-57
2023/09/02 05:00:24;;;;;;;0.00;0.00;;;;;;;15.88;100.00;99608.94;5094372;28;20195;-57
2023/09/02 05:03:11;;;;;;;0.00;0.00;;;;;;;15.69;100.00;99610.38;5095231;28;20199;-56
2023/09/02 05:06:00;;;;;;;0.00;0.00;;;;;;;15.83;100.00;99606.66;5094333;28;20198;-57
2023/09/02 05:08:47;;;;;;;0.00;0.00;;;;;;;15.87;100.00;99610.78;5094296;28;20241;-57
2023/09/02 05:11:37;;;;;;;0.00;0.00;;;;;;;15.85;100.00;99603.84;5092685;28;20269;-57
2023/09/02 05:14:24;;;;;;;0.00;0.00;;;;;;;15.90;100.00;99612.34;5095074;28;20229;-57
2023/09/02 05:17:11;;;;;;;0.00;0.00;;;;;;;15.78;100.00;99606.16;5095109;28;20348;-57
2023/09/02 05:19:58;;;;;;;0.10;0.10;;;;;;;15.75;100.00;99609.06;5093899;28;20224;-57
2023/09/02 05:22:46;;;;;;;0.00;0.00;;;;;;;15.89;100.00;99614.16;5093876;28;20226;-57
2023/09/02 05:25:33;;;;;;;0.10;0.10;;;;;;;15.87;100.00;99609.91;5093662;28;20302;-57
2023/09/02 05:28:22;;;;;;;0.03;0.03;;;;;;;15.99;100.00;99601.78;5093131;28;20218;-57
2023/09/02 05:31:11;;;;;;;0.00;0.00;;;;;;;15.91;100.00;99600.69;5093791;28;20252;-57
2023/09/02 05:33:58;;;;;;;0.10;0.10;;;;;;;15.81;100.00;99599.72;5094773;28;20205;-57
2023/09/02 05:36:45;;;;;;;0.10;0.10;;;;;;;15.86;100.00;99600.22;5094587;28;20679;-57
2023/09/02 05:39:33;;;;;;;0.00;0.00;;;;;;;15.93;100.00;99604.94;5093256;28;20195;-57
2023/09/02 05:42:20;;;;;;;0.10;0.10;;;;;;;16.10;100.00;99613.44;5094115;28;20206;-57
2023/09/02 05:45:08;;;;;;;0.00;0.00;;;;;;;16.07;100.00;99603.84;5094358;28;20599;-57
2023/09/02 05:47:55;;;;;;;0.10;0.10;;;;;;;16.19;100.00;99597.50;5094246;28;20222;-57
2023/09/02 05:50:42;;;;;;;0.10;0.10;;;;;;;16.27;100.00;99599.59;5094237;28;20194;-57
2023/09/02 05:53:30;;;;;;;0.00;0.00;;;;;;;16.27;100.00;99603.09;5094317;28;20237;-57
2023/09/02 05:56:18;;;;;;;0.00;0.00;;;;;;;16.38;100.00;99596.88;5093002;28;20256;-57
2023/09/02 05:59:05;;;;;;;0.00;0.00;;;;;;;16.38;100.00;99596.88;5094388;28;20199;-57
2023/09/02 06:01:52;;;;;;;0.00;0.00;;;;;;;16.46;100.00;99599.78;5094315;28;20266;-57
2023/09/02 06:04:39;;;;;;;0.10;0.10;;;;;;;16.46;100.00;99598.94;5094103;28;20328;-57
2023/09/02 06:07:26;;;;;;;0.00;0.00;;;;;;;16.52;100.00;99599.31;5093831;28;20217;-57
2023/09/02 06:10:13;;;;;;;0.10;0.10;;;;;;;16.53;100.00;99595.66;5092782;28;20198;-57
2023/09/02 06:13:01;;;;;;;0.00;0.00;;;;;;;16.70;100.00;99604.16;5093974;28;20206;-57
2023/09/02 06:15:48;;;;;;;0.10;0.10;;;;;;;16.74;100.00;99600.25;5093767;28;20285;-57
2023/09/02 06:18:36;;;;;;;0.03;0.03;;;;;;;16.76;100.00;99600.97;5093630;28;20202;-57
2023/09/02 06:21:23;;;;;;;0.10;0.10;;;;;;;16.62;100.00;99599.41;5093161;28;20241;-57
2023/09/02 06:24:10;;;;;;;0.00;0.00;;;;;;;16.49;100.00;99596.84;5093136;28;20202;-57
2023/09/02 06:27:03;;;;;;;0.10;0.10;;;;;;;16.78;100.00;99599.00;5093052;28;20206;-57
2023/09/02 06:29:51;;;;;;;0.10;0.10;;;;;;;16.87;100.00;99596.41;5093776;28;20199;-57
2023/09/02 06:32:38;;;;;;;0.00;0.00;;;;;;;16.68;100.00;99590.00;5093521;28;20214;-57
2023/09/02 06:35:25;;;;;;;0.10;0.10;;;;;;;16.50;100.00;99600.38;5093488;28;20252;-57
2023/09/02 06:38:12;;;;;;;0.00;0.00;;;;;;;16.54;100.00;99601.84;5093357;28;20219;-57
2023/09/02 06:40:59;;;;;;;0.00;0.00;;;;;;;16.79;100.00;99606.06;5092288;28;20202;-57
2023/09/02 06:43:46;;;;;;;0.00;0.00;;;;;;;16.90;100.00;99606.03;5093348;28;20198;-56
2023/09/02 06:46:35;;;;;;;0.00;0.00;;;;;;;16.96;100.00;99604.66;5093413;28;20617;-56
2023/09/02 06:49:22;;;;;;;0.00;0.00;;;;;;;17.03;100.00;99598.69;5093479;28;20190;-55
2023/09/02 06:52:09;;;;;;;0.00;0.00;;;;;;;17.18;100.00;99601.91;5093403;28;20195;-57
2023/09/02 06:54:55;;;;;;;0.07;0.07;;;;;;;17.01;100.00;99589.09;5091142;28;20194;-57
2023/09/02 06:57:43;;;;;;;0.00;0.00;;;;;;;16.99;100.00;99591.03;5093095;28;20252;-57
2023/09/02 07:00:30;;;;;;;0.00;0.00;;;;;;;16.99;100.00;99591.03;5093142;28;20320;-57
2023/09/02 07:03:19;;;;;;;0.00;0.00;;;;;;;17.17;100.00;99593.00;5093006;28;20309;-56
2023/09/02 07:06:08;;;;;;;0.07;0.07;;;;;;;17.22;100.00;99591.78;5093228;28;20199;-57
2023/09/02 07:08:55;;;;;;;0.10;0.10;;;;;;;17.14;100.00;99582.56;5092683;28;20723;-57
2023/09/02 07:11:42;;;;;;;0.10;0.10;;;;;;;17.38;100.00;99586.81;5091435;28;20193;-57
2023/09/02 07:14:28;;;;;;;0.10;0.10;;;;;;;17.44;100.00;99580.94;5092047;28;20199;-55
2023/09/02 07:17:15;;;;;;;0.00;0.00;;;;;;;17.68;100.00;99586.88;5092831;28;20676;-56
2023/09/02 07:20:05;;;;;;;0.10;0.10;;;;;;;17.42;100.00;99573.03;5092818;28;20237;-56
2023/09/02 07:22:52;;;;;;;0.10;0.10;;;;;;;17.51;100.00;99576.75;5092750;28;20191;-56
2023/09/02 07:25:39;;;;;;;0.07;0.07;;;;;;;17.72;100.00;99568.72;5091564;28;20222;-56
2023/09/02 07:28:26;;;;;;;0.10;0.10;;;;;;;18.01;100.00;99567.00;5092503;28;20723;-57
2023/09/02 07:31:13;;;;;;;0.00;0.00;;;;;;;18.16;100.00;99564.81;5092486;28;20266;-58
2023/09/02 07:33:59;;;;;;;0.00;0.00;;;;;;;18.34;100.00;99567.69;5092639;28;20202;-57
2023/09/02 07:36:48;;;;;;;0.00;0.00;;;;;;;18.13;100.00;99573.09;5092663;28;20198;-57
2023/09/02 07:39:35;;;;;;;0.00;0.00;;;;;;;18.46;100.00;99573.78;5091380;28;20256;-57
2023/09/02 07:42:22;;;;;;;0.00;0.00;;;;;;;18.39;100.00;99572.63;5092561;28;20257;-57
2023/09/02 07:45:11;;;;;;;0.10;0.10;;;;;;;18.50;100.00;99565.31;5092554;28;20206;-57
2023/09/02 07:47:58;;;;;;;0.10;0.10;;;;;;;18.58;100.00;99556.56;5092320;28;20260;-57
2023/09/02 07:50:45;;;;;;;0.00;0.00;;;;;;;18.63;100.00;99554.34;5092537;28;20198;-57
2023/09/02 07:53:33;;;;;;;0.00;0.00;;;;;;;18.48;100.00;99558.38;5092666;28;20225;-56
2023/09/02 07:56:22;;;;;;;0.00;0.00;;;;;;;18.48;0.00;64328.84;5091102;28;20199;-57
2023/09/02 07:59:09;;;;;;;0.00;0.00;;;;;;;18.70;100.00;99560.84;5092360;28;20191;-57
2023/09/02 08:01:56;;;;;;;0.00;0.00;;;;;;;18.84;100.00;99568.50;5091947;28;20195;-57
2023/09/02 08:04:43;;;;;;;0.10;0.10;;;;;;;18.78;100.00;99571.72;5092041;28;20325;-57
2023/09/02 08:07:32;;;;;;;0.00;0.00;;;;;;;18.60;100.00;99576.91;5095853;28;20210;-56
2023/09/02 08:10:20;;;;;;;0.00;0.00;;;;;;;18.71;100.00;99569.75;5094186;28;20313;-57
2023/09/02 08:13:07;;;;;;;0.00;0.00;;;;;;;18.51;100.00;99574.19;5096001;28;20210;-57
2023/09/02 08:15:54;;;;;;;0.00;0.00;;;;;;;18.58;100.00;99594.13;5096220;28;20195;-57
2023/09/02 08:18:41;;;;;;;0.10;0.10;;;;;;;18.96;100.00;99585.31;5096400;28;20217;-57
2023/09/02 08:21:28;;;;;;;0.00;0.00;;;;;;;18.59;100.00;99596.69;5096194;28;20257;-56
2023/09/02 08:24:15;;;;;;;0.10;0.10;;;;;;;18.37;100.00;99590.69;5096331;28;20191;-56
2023/09/02 08:27:04;;;;;;;0.10;0.10;;;;;;;18.60;100.00;99594.84;5096163;28;20243;-57
2023/09/02 08:29:51;;;;;;;0.10;0.10;;;;;;;18.69;100.00;99595.88;5094480;28;20223;-57
2023/09/02 08:32:38;;;;;;;0.00;0.00;;;;;;;18.87;100.00;99589.69;5096276;28;20202;-57
2023/09/02 08:35:25;;;;;;;0.10;0.10;;;;;;;18.98;100.00;99601.28;5096344;28;20290;-56
2023/09/02 08:38:12;;;;;;;0.10;0.10;;;;;;;19.11;100.00;99597.34;5095284;28;20218;-57
2023/09/02 08:41:02;;;;;;;0.00;0.00;;;;;;;18.68;100.00;99611.13;5094550;28;20261;-56
2023/09/02 08:43:54;;;;;;;0.00;0.00;;;;;;;18.78;100.00;99609.31;5095820;28;20191;-56
2023/09/02 08:46:42;;;;;;;0.00;0.00;;;;;;;18.66;100.00;99612.25;5095616;28;20871;-57
2023/09/02 08:49:30;;;;;;;0.00;0.00;;;;;;;19.33;100.00;99601.56;5095239;28;20341;-57
2023/09/02 08:52:17;;;;;;;0.10;0.10;;;;;;;18.95;100.00;99594.34;5095668;28;20195;-57
2023/09/02 08:55:05;;;;;;;0.10;0.10;;;;;;;-144.59;0.00;-17875.97;5094329;28;20187;-57
2023/09/02 08:57:56;;;;;;;0.10;0.10;;;;;;;19.34;100.00;99597.03;5095678;28;20328;-57
2023/09/02 09:00:46;;;;;;;0.10;0.10;;;;;;;20.04;100.00;99600.25;5095816;28;20191;-57
2023/09/02 09:03:34;;;;;;;0.10;0.10;;;;;;;20.40;100.00;99588.63;5095749;28;20273;-57
2023/09/02 09:06:23;;;;;;;0.10;0.10;;;;;;;20.42;100.00;99580.41;5095469;28;20229;-57
2023/09/02 09:09:11;;;;;;;0.10;0.10;;;;;;;20.96;100.00;99586.72;5079004;28;20210;-57
2023/09/02 09:12:01;;;;;;;0.00;0.00;;;;;;;21.34;100.00;99575.66;5094560;28;20274;-57
2023/09/02 09:14:54;;;;;;;0.10;0.10;;;;;;;21.68;100.00;99575.69;5095258;28;20489;-57
2023/09/02 09:17:43;;;;;;;0.10;0.10;;;;;;;21.62;100.00;99578.22;5093953;28;20187;-57
2023/09/02 09:20:32;;;;;;;0.10;0.10;;;;;;;20.89;100.00;99581.09;5095022;28;20190;-57
2023/09/02 09:23:19;;;;;;;0.00;0.00;;;;;;;21.12;100.00;99578.78;5094025;28;20279;-57
2023/09/02 09:26:08;;;;;;;0.10;0.10;;;;;;;21.34;100.00;99580.19;5091916;28;20203;-57
2023/09/02 09:28:56;;;;;;;0.00;0.00;;;;;;;21.38;100.00;99582.41;5094382;28;20231;-57
2023/09/02 09:31:43;;;;;;;0.00;0.00;;;;;;;21.35;100.00;99581.88;5094856;28;20215;-57
2023/09/02 09:34:37;;;;;;;0.00;0.00;;;;;;;21.55;100.00;99583.38;5094851;28;20199;-58
2023/09/02 09:37:24;;;;;;;0.10;0.10;;;;;;;21.73;100.00;99577.94;5094790;28;20227;-57
2023/09/02 09:40:12;;;;;;;0.00;0.00;;;;;;;22.07;100.00;99567.19;5093566;28;20226;-58
2023/09/02 09:43:00;;;;;;;0.00;0.00;;;;;;;22.48;100.00;99570.88;5095036;28;20202;-57
2023/09/02 09:45:51;;;;;;;0.10;0.10;;;;;;;22.70;100.00;99577.53;5094761;28;20198;-57
2023/09/02 09:48:46;;;;;;;0.00;0.00;;;;;;;22.18;100.00;99582.22;5094625;28;20214;-57
2023/09/02 09:51:37;;;;;;;0.08;0.08;;;;;;;22.89;100.00;99594.47;5094540;28;20191;-57
2023/09/02 09:54:36;;;;;;;0.00;0.00;;;;;;;22.89;100.00;99594.47;5094116;28;20203;-57
2023/09/02 09:57:35;;;;;;;0.00;0.00;;;;;;;22.87;100.00;99572.16;5094361;28;20190;-57
2023/09/02 10:00:23;;;;;;;0.00;0.00;;;;;;;23.26;100.00;99575.94;5094454;28;20233;-56
2023/09/02 10:03:10;;;;;;;0.00;0.00;;;;;;;23.74;100.00;99574.22;5092763;28;20276;-56
2023/09/02 10:05:59;;;;;;;0.00;0.00;;;;;;;22.60;100.00;99582.22;5092585;28;20198;-56
2023/09/02 10:08:53;;;;;;;0.10;0.10;;;;;;;23.26;100.00;99577.75;5093919;28;20678;-56
2023/09/02 10:11:42;;;;;;;0.00;0.00;;;;;;;-144.59;100.00;63158.22;5092911;28;20306;-56
2023/09/02 10:14:28;;;;;;;0.10;0.10;;;;;;;23.99;100.00;99583.09;5093960;28;20206;-56
2023/09/02 10:17:16;;;;;;;0.00;0.00;;;;;;;24.67;100.00;99585.19;5093999;28;20203;-58
2023/09/02 10:20:04;;;;;;;0.00;0.00;;;;;;;25.15;100.00;99575.06;5094061;28;20272;-57
2023/09/02 10:22:52;;;;;;;0.00;0.00;;;;;;;25.11;100.00;99569.19;5093804;28;20244;-57
2023/09/02 10:25:50;;;;;;;0.00;0.00;;;;;;;25.33;100.00;99577.47;5092626;28;20245;-57
2023/09/02 10:28:39;;;;;;;0.10;0.10;;;;;;;25.32;100.00;99586.66;5093646;28;20194;-57
2023/09/02 10:31:32;;;;;;;0.03;0.03;;;;;;;25.70;100.00;99587.50;5093181;28;20733;-57
2023/09/02 10:34:26;;;;;;;0.00;0.00;;;;;;;26.90;100.00;99579.06;5093817;28;20210;-57
2023/09/02 10:37:15;;;;;;;0.00;0.00;;;;;;;27.87;100.00;99572.00;5093349;28;20302;-57
2023/09/02 10:40:06;;;;;;;0.00;0.00;;;;;;;29.40;98.07;99569.84;5092284;28;20201;-57
2023/09/02 10:42:55;;;;;;;0.00;0.00;;;;;;;31.38;77.35;99558.22;5093694;28;20199;-57
2023/09/02 10:45:44;;;;;;;0.00;0.00;;;;;;;33.23;66.86;99556.03;5093576;28;20261;-56
2023/09/02 10:48:31;;;;;;;0.00;0.00;;;;;;;33.52;60.94;99554.31;5093563;28;20199;-57
2023/09/02 10:51:18;;;;;;;0.00;0.00;;;;;;;33.57;60.65;99554.44;5093311;28;20183;-57
2023/09/02 10:54:06;;;;;;;0.00;0.00;;;;;;;33.62;59.91;99563.88;5093235;28;20266;-57
2023/09/02 10:56:53;;;;;;;0.00;0.00;;;;;;;33.46;58.50;99559.91;5093311;28;20344;-57
2023/09/02 10:59:41;;;;;;;0.00;0.00;;;;;;;32.65;60.51;99564.06;5093381;28;20238;-56
2023/09/02 11:02:41;;;;;;;0.00;0.00;;;;;;;33.73;55.91;99558.38;5092917;28;20195;-57
2023/09/02 11:05:29;;;;;;;0.00;0.00;;;;;;;34.86;50.31;99558.91;5091593;28;20195;-57
2023/09/02 11:08:44;;;;;;;0.00;0.00;;;;;;;33.34;55.92;99550.81;5092223;28;20222;-57
2023/09/02 11:12:06;;;;;;;0.00;0.00;;;;;;;34.72;51.50;99536.31;5091665;28;20198;-56
2023/09/02 11:15:24;;;;;;;0.00;0.00;;;;;;;35.23;49.34;99540.03;5091440;28;20199;-57
2023/09/02 11:18:32;;;;;;;0.00;0.00;;;;;;;35.43;50.46;99543.16;5030291;28;20204;-57
2023/09/02 11:21:39;;;;;;;0.00;0.00;;;;;;;36.51;44.18;99545.53;5091402;28;20186;-57
2023/09/02 11:24:25;;;;;;;0.00;0.00;;;;;;;35.10;48.34;99554.94;5089816;28;20302;-57
2023/09/02 11:27:12;;;;;;;0.00;0.00;;;;;;;34.32;52.82;99545.41;5091696;28;20190;-57
2023/09/02 11:30:09;;;;;;;0.00;0.00;;;;;;;35.47;49.60;99535.22;5092779;28;20235;-57
2023/09/02 11:32:57;;;;;;;0.00;0.00;;;;;;;35.27;48.72;99543.94;5092708;28;20183;-57
2023/09/02 11:35:45;;;;;;;0.00;0.00;;;;;;;36.67;42.88;99534.41;5092659;28;20191;-57
2023/09/02 11:38:33;;;;;;;0.00;0.00;;;;;;;36.23;45.23;99536.31;5092208;28;20269;-57
2023/09/02 11:41:21;;;;;;;0.00;0.00;;;;;;;35.58;46.99;99542.53;5090843;28;20202;-57
2023/09/02 11:44:13;;;;;;;0.00;0.00;;;;;;;36.68;42.07;99549.03;5092585;28;20233;-57
2023/09/02 11:47:01;;;;;;;0.00;0.00;;;;;;;35.12;46.62;99555.53;5092850;28;20202;-57
2023/09/02 11:49:49;;;;;;;0.00;0.00;;;;;;;34.24;51.35;99554.03;5092769;28;20206;-57
2023/09/02 11:52:36;;;;;;;0.00;0.00;;;;;;;38.44;38.17;99549.88;5092645;28;20191;-57
2023/09/02 11:55:24;;;;;;;0.00;0.00;;;;;;;40.58;33.72;99547.03;5091401;28;20194;-57
2023/09/02 11:58:14;;;;;;;0.00;0.00;;;;;;;39.38;34.53;99543.16;5092272;28;20205;-57
2023/09/02 12:01:01;;;;;;;0.00;0.00;;;;;;;37.55;38.84;99536.06;5092235;28;20682;-57
2023/09/02 12:03:49;;;;;;;0.00;0.00;;;;;;;36.99;42.30;99539.16;5092606;28;20241;-58
2023/09/02 12:06:37;;;;;;;0.00;0.00;;;;;;;39.67;35.80;99535.13;5092590;28;20302;-57
2023/09/02 12:09:24;;;;;;;0.00;0.00;;;;;;;38.73;37.31;99530.06;5091074;28;20366;-57
2023/09/02 12:12:11;;;;;;;0.00;0.00;;;;;;;36.58;42.71;99537.88;5092384;28;20202;-57
2023/09/02 12:14:58;;;;;;;0.00;0.00;;;;;;;36.87;42.68;99535.72;5092351;28;20210;-57
2023/09/02 12:17:46;;;;;;;0.00;0.00;;;;;;;37.98;40.68;99521.13;5092343;28;20199;-57
2023/09/02 12:20:34;;;;;;;0.00;0.00;;;;;;;38.50;38.10;99526.63;5092364;28;20245;-57
2023/09/02 12:23:23;;;;;;;0.00;0.00;;;;;;;40.68;33.50;99516.44;5092486;28;20199;-57
2023/09/02 12:26:10;;;;;;;0.00;0.00;;;;;;;38.63;35.57;99528.88;5091062;28;20198;-56
2023/09/02 12:28:57;;;;;;;0.00;0.00;;;;;;;39.78;32.90;99514.56;5091289;28;20276;-57
2023/09/02 12:32:00;;;;;;;0.00;0.00;;;;;;;39.35;34.25;99524.28;5092031;28;20333;-57
2023/09/02 12:34:47;;;;;;;0.00;0.00;;;;;;;41.21;30.88;99512.97;5092223;28;20236;-57
2023/09/02 12:37:33;;;;;;;0.00;0.00;;;;;;;41.60;28.99;99515.69;5092054;28;20225;-57
2023/09/02 12:40:22;;;;;;;0.00;0.00;;;;;;;40.79;30.58;99519.97;5090619;28;20195;-57
2023/09/02 12:43:09;;;;;;;0.00;0.00;;;;;;;40.46;31.84;99525.16;5092242;28;20191;-57
2023/09/02 12:45:57;;;;;;;0.00;0.00;;;;;;;40.68;30.72;99524.75;5091927;28;20244;-57
2023/09/02 12:48:46;;;;;;;0.00;0.00;;;;;;;43.09;28.26;99528.31;5090751;28;20198;-57
2023/09/02 12:51:38;;;;;;;0.00;0.00;;;;;;;41.81;30.17;99522.75;5091386;28;20318;-57
2023/09/02 12:54:30;;;;;;;0.00;0.00;;;;;;;42.58;28.47;99520.72;5093787;28;20194;-58
2023/09/02 12:57:18;;;;;;;0.00;0.00;;;;;;;43.89;26.72;99510.44;5095640;28;20301;-56
2023/09/02 13:00:06;;;;;;;0.00;0.00;;;;;;;41.93;28.52;99503.69;5095469;28;20190;-56
2023/09/02 13:02:54;;;;;;;0.00;0.00;;;;;;;42.49;27.70;99494.63;5095577;28;20199;-55
2023/09/02 13:05:41;;;;;;;0.00;0.00;;;;;;;38.84;33.29;99493.75;5095313;28;20190;-55
2023/09/02 13:08:28;;;;;;;0.00;0.00;;;;;;;41.45;29.74;99491.66;5095381;28;20362;-55